createdAt,value
2022-09-29T00:01:19.330Z,88.63
2022-09-29T00:03:47.626Z,88.27
2022-09-29T00:06:19.383Z,87.94
2022-09-29T00:08:48.362Z,87.02
2022-09-29T00:11:19.407Z,87.06
2022-09-29T00:13:49.216Z,87.64
2022-09-29T00:16:17.782Z,87.85
2022-09-29T00:18:46.095Z,89.08
2022-09-29T00:21:19.871Z,90.15
2022-09-29T00:23:49.250Z,90.12
2022-09-29T00:26:20.954Z,90.00
2022-09-29T00:28:53.710Z,89.21
2022-09-29T00:31:23.166Z,89.31
2022-09-29T00:33:52.167Z,89.51
2022-09-29T00:36:24.073Z,89.16
2022-09-29T00:38:53.915Z,89.04
2022-09-29T00:41:25.067Z,89.10
2022-09-29T00:43:58.678Z,88.88
2022-09-29T00:46:42.518Z,88.80
2022-09-29T00:49:20.138Z,89.31
2022-09-29T00:51:55.858Z,88.70
2022-09-29T00:54:27.576Z,88.79
2022-09-29T00:56:57.838Z,88.38
2022-09-29T00:59:29.543Z,88.66
2022-09-29T01:01:58.098Z,89.18
2022-09-29T01:04:27.128Z,89.53
2022-09-29T01:06:59.091Z,89.87
2022-09-29T01:09:31.361Z,89.93
2022-09-29T01:12:01.471Z,89.93
2022-09-29T01:14:31.708Z,89.80
2022-09-29T01:17:00.640Z,90.20
2022-09-29T01:19:48.571Z,90.12
2022-09-29T01:22:36.509Z,90.18
2022-09-29T01:25:26.143Z,90.55
2022-09-29T01:28:29.936Z,91.13
2022-09-29T01:31:22.682Z,91.65
2022-09-29T01:34:01.602Z,91.51
2022-09-29T01:36:42.789Z,92.08
2022-09-29T01:39:23.292Z,92.30
2022-09-29T01:41:56.653Z,93.02
2022-09-29T01:44:29.776Z,92.58
2022-09-29T01:47:04.963Z,92.76
2022-09-29T01:49:39.612Z,93.51
2022-09-29T01:52:13.025Z,93.92
2022-09-29T01:54:47.874Z,93.97
2022-09-29T01:57:21.466Z,94.04
2022-09-29T01:59:56.408Z,94.66
2022-09-29T02:02:31.884Z,94.35
2022-09-29T02:05:05.012Z,94.27
2022-09-29T02:07:40.182Z,94.61
2022-09-29T02:10:14.754Z,94.25
2022-09-29T02:12:45.955Z,93.19
2022-09-29T02:15:20.477Z,93.06
2022-09-29T02:17:53.228Z,94.13
2022-09-29T02:20:22.531Z,94.70
2022-09-29T02:22:50.977Z,95.47
2022-09-29T02:25:21.669Z,96.53
2022-09-29T02:27:51.479Z,97.47
2022-09-29T02:30:20.421Z,98.14
2022-09-29T02:32:53.156Z,98.44
2022-09-29T02:35:22.212Z,98.66
2022-09-29T02:38:05.851Z,99.64
2022-09-29T02:40:45.837Z,100.00
2022-09-29T02:43:34.362Z,100.00
2022-09-29T02:46:19.085Z,98.38
2022-09-29T02:49:07.502Z,98.69
2022-09-29T02:51:41.249Z,99.44
2022-09-29T02:54:25.807Z,100.00
2022-09-29T02:57:06.991Z,100.00
2022-09-29T02:59:43.630Z,100.00
2022-09-29T03:02:12.015Z,100.00
2022-09-29T03:04:41.869Z,100.00
2022-09-29T03:07:10.312Z,100.00
2022-09-29T03:09:39.577Z,100.00
2022-09-29T03:12:08.082Z,100.00
2022-09-29T03:14:36.409Z,100.00
2022-09-29T03:17:04.862Z,100.00
2022-09-29T03:19:33.209Z,100.00
2022-09-29T03:22:03.829Z,100.00
2022-09-29T03:24:32.424Z,100.00
2022-09-29T03:27:00.881Z,100.00
2022-09-29T03:29:29.631Z,100.00
2022-09-29T03:31:59.652Z,100.00
2022-09-29T03:34:28.228Z,100.00
2022-09-29T03:36:57.925Z,100.00
2022-09-29T03:39:28.419Z,100.00
2022-09-29T03:41:57.273Z,100.00
2022-09-29T03:44:25.736Z,100.00
2022-09-29T03:46:54.333Z,100.00
2022-09-29T03:49:22.719Z,100.00
2022-09-29T03:51:52.722Z,100.00
2022-09-29T03:54:21.050Z,100.00
2022-09-29T03:56:50.838Z,100.00
2022-09-29T03:59:19.285Z,100.00
2022-09-29T04:01:47.780Z,100.00
2022-09-29T04:04:16.189Z,100.00
2022-09-29T04:06:44.607Z,100.00
2022-09-29T04:09:12.998Z,100.00
2022-09-29T04:11:41.433Z,100.00
2022-09-29T04:14:11.129Z,100.00
2022-09-29T04:16:39.589Z,100.00
2022-09-29T04:19:08.004Z,100.00
2022-09-29T04:21:36.476Z,100.00
2022-09-29T04:24:05.209Z,100.00
2022-09-29T04:26:33.632Z,100.00
2022-09-29T04:29:02.081Z,100.00
2022-09-29T04:31:31.856Z,100.00
2022-09-29T04:34:00.221Z,100.00
2022-09-29T04:36:28.583Z,100.00
2022-09-29T04:38:58.048Z,100.00
2022-09-29T04:41:26.400Z,100.00
2022-09-29T04:43:54.806Z,100.00
2022-09-29T04:46:23.611Z,100.00
2022-09-29T04:48:53.508Z,100.00
2022-09-29T04:51:22.037Z,100.00
2022-09-29T04:53:50.524Z,100.00
2022-09-29T04:56:19.018Z,100.00
2022-09-29T04:58:47.421Z,100.00
2022-09-29T05:01:17.391Z,100.00
2022-09-29T05:03:45.807Z,100.00
2022-09-29T05:06:16.033Z,100.00
2022-09-29T05:08:44.552Z,100.00
2022-09-29T05:11:12.927Z,100.00
2022-09-29T05:13:41.945Z,100.00
2022-09-29T05:16:10.380Z,100.00
2022-09-29T05:18:38.762Z,100.00
2022-09-29T05:21:27.079Z,100.00
2022-09-29T05:23:58.532Z,100.00
2022-09-29T05:26:27.304Z,100.00
2022-09-29T05:28:55.805Z,100.00
2022-09-29T05:31:24.627Z,100.00
2022-09-29T05:33:53.774Z,100.00
2022-09-29T05:36:22.258Z,100.00
2022-09-29T05:38:50.687Z,100.00
2022-09-29T05:41:22.815Z,100.00
2022-09-29T05:43:53.738Z,100.00
2022-09-29T05:46:23.359Z,100.00
2022-09-29T05:48:52.371Z,100.00
2022-09-29T05:51:23.853Z,100.00
2022-09-29T05:53:52.804Z,100.00
2022-09-29T05:56:25.677Z,100.00
2022-09-29T05:58:54.989Z,100.00
2022-09-29T06:01:26.350Z,100.00
2022-09-29T06:03:55.234Z,100.00
2022-09-29T06:06:26.645Z,100.00
2022-09-29T06:08:55.903Z,100.00
2022-09-29T06:11:28.503Z,100.00
2022-09-29T06:13:57.538Z,100.00
2022-09-29T06:16:28.670Z,100.00
2022-09-29T06:18:57.901Z,100.00
2022-09-29T06:21:28.735Z,100.00
2022-09-29T06:23:58.439Z,100.00
2022-09-29T06:26:29.233Z,100.00
2022-09-29T06:28:58.640Z,100.00
2022-09-29T06:31:29.716Z,100.00
2022-09-29T06:33:59.440Z,100.00
2022-09-29T06:36:49.806Z,100.00
2022-09-29T06:39:18.803Z,100.00
2022-09-29T06:41:53.468Z,100.00
2022-09-29T06:44:24.442Z,100.00
2022-09-29T06:46:53.762Z,100.00
2022-09-29T06:49:22.933Z,100.00
2022-09-29T06:51:51.478Z,100.00
2022-09-29T06:54:22.116Z,100.00
2022-09-29T06:56:53.457Z,100.00
2022-09-29T06:59:22.433Z,100.00
2022-09-29T07:01:51.821Z,100.00
2022-09-29T07:04:21.856Z,100.00
2022-09-29T07:06:50.815Z,100.00
2022-09-29T07:09:20.212Z,100.00
2022-09-29T07:11:52.220Z,100.00
2022-09-29T07:14:23.282Z,100.00
2022-09-29T07:16:52.209Z,100.00
2022-09-29T07:19:22.236Z,100.00
2022-09-29T07:21:51.654Z,100.00
2022-09-29T07:24:20.108Z,100.00
2022-09-29T07:26:48.651Z,100.00
2022-09-29T07:29:18.682Z,100.00
2022-09-29T07:31:51.875Z,100.00
2022-09-29T07:34:20.963Z,100.00
2022-09-29T07:36:49.462Z,100.00
2022-09-29T07:39:18.011Z,100.00
2022-09-29T07:41:46.490Z,100.00
2022-09-29T07:44:14.914Z,100.00
2022-09-29T07:46:44.672Z,100.00
2022-09-29T07:49:13.248Z,100.00
2022-09-29T07:51:41.708Z,100.00
2022-09-29T07:54:11.562Z,100.00
2022-09-29T07:56:40.310Z,99.45
2022-09-29T07:59:11.444Z,99.67
2022-09-29T08:01:42.370Z,99.62
2022-09-29T08:04:13.191Z,99.74
2022-09-29T08:06:42.198Z,100.00
2022-09-29T08:09:10.592Z,100.00
2022-09-29T08:11:41.179Z,99.96
2022-09-29T08:14:10.749Z,99.06
2022-09-29T08:16:39.796Z,99.02
2022-09-29T08:19:08.644Z,97.58
2022-09-29T08:21:38.490Z,97.26
2022-09-29T08:24:08.353Z,96.87
2022-09-29T08:26:43.717Z,98.69
2022-09-29T08:29:16.447Z,97.45
2022-09-29T08:31:46.226Z,98.01
2022-09-29T08:34:15.713Z,95.34
2022-09-29T08:36:45.636Z,93.79
2022-09-29T08:39:15.519Z,96.20
2022-09-29T08:41:58.396Z,95.74
2022-09-29T08:44:39.503Z,94.61
2022-09-29T08:47:24.284Z,95.31
2022-09-29T08:49:56.943Z,93.63
2022-09-29T08:52:35.680Z,93.29
2022-09-29T08:55:41.330Z,91.99
2022-09-29T08:58:14.798Z,95.28
2022-09-29T09:00:55.047Z,89.77
2022-09-29T09:03:50.331Z,90.90
2022-09-29T09:06:29.114Z,91.43
2022-09-29T09:09:30.815Z,89.76
2022-09-29T09:12:19.634Z,87.08
2022-09-29T09:15:09.848Z,84.61
2022-09-29T09:18:04.597Z,83.68
2022-09-29T09:20:36.998Z,82.34
2022-09-29T09:23:18.143Z,80.61
2022-09-29T09:25:53.651Z,80.00
2022-09-29T09:28:29.020Z,78.23
2022-09-29T09:31:03.249Z,78.66
2022-09-29T09:33:38.603Z,77.76
2022-09-29T09:36:22.130Z,75.48
2022-09-29T09:38:59.292Z,74.84
2022-09-29T09:41:35.791Z,72.64
2022-09-29T09:44:12.307Z,69.84
2022-09-29T09:46:47.537Z,69.45
2022-09-29T09:49:22.735Z,69.53
2022-09-29T09:51:59.938Z,70.37
2022-09-29T09:54:36.956Z,70.45
2022-09-29T09:57:53.804Z,72.09
2022-09-29T10:00:27.016Z,71.51
2022-09-29T10:02:57.641Z,70.83
2022-09-29T10:05:34.298Z,68.59
2022-09-29T10:08:04.093Z,68.66
2022-09-29T10:10:33.084Z,67.52
2022-09-29T10:13:08.821Z,67.65
2022-09-29T10:15:44.411Z,65.61
2022-09-29T10:18:18.123Z,66.01
2022-09-29T10:20:46.661Z,67.19
2022-09-29T10:23:28.164Z,65.59
2022-09-29T10:26:03.030Z,65.99
2022-09-29T10:28:44.418Z,66.06
2022-09-29T10:31:28.740Z,66.95
2022-09-29T10:34:00.458Z,67.53
2022-09-29T10:36:33.208Z,66.49
2022-09-29T10:39:03.646Z,67.64
2022-09-29T10:41:52.294Z,66.16
2022-09-29T10:44:23.413Z,65.73
2022-09-29T10:46:56.204Z,65.75
2022-09-29T10:49:28.169Z,66.62
2022-09-29T10:52:02.243Z,66.62
2022-09-29T10:54:35.199Z,65.78
2022-09-29T10:57:15.450Z,63.88
2022-09-29T10:59:53.976Z,62.51
2022-09-29T11:02:29.077Z,61.95
2022-09-29T11:05:01.400Z,60.07
2022-09-29T11:07:30.316Z,58.38
2022-09-29T11:09:58.834Z,58.20
2022-09-29T11:12:34.116Z,58.65
2022-09-29T11:15:09.212Z,56.13
2022-09-29T11:17:39.923Z,55.23
2022-09-29T11:20:16.440Z,53.29
2022-09-29T11:23:24.081Z,52.51
2022-09-29T11:26:20.884Z,50.09
2022-09-29T11:29:32.499Z,52.25
2022-09-29T11:32:30.664Z,53.32
2022-09-29T11:35:18.750Z,52.46
2022-09-29T11:38:33.937Z,51.55
2022-09-29T11:41:29.433Z,52.39
2022-09-29T11:44:06.803Z,50.71
2022-09-29T11:46:52.718Z,51.84
2022-09-29T11:49:39.769Z,53.37
2022-09-29T11:52:29.527Z,50.38
2022-09-29T11:55:16.079Z,50.81
2022-09-29T11:57:55.365Z,52.61
2022-09-29T12:00:38.190Z,54.30
2022-09-29T12:03:29.522Z,53.51
2022-09-29T12:06:33.847Z,52.82
2022-09-29T12:09:21.168Z,51.09
2022-09-29T12:15:21.455Z,53.45
2022-09-29T12:17:55.849Z,53.23
2022-09-29T12:20:27.743Z,55.20
2022-09-29T12:23:03.170Z,52.57
2022-09-29T12:25:37.561Z,52.85
2022-09-29T12:28:14.156Z,53.64
2022-09-29T12:30:51.716Z,52.46
2022-09-29T12:33:25.410Z,51.37
2022-09-29T12:36:30.008Z,50.51
2022-09-29T12:39:10.263Z,50.55
2022-09-29T12:41:43.402Z,51.12
2022-09-29T12:44:19.576Z,46.74
2022-09-29T12:46:53.989Z,50.18
2022-09-29T12:49:30.281Z,48.65
2022-09-29T12:51:59.331Z,47.17
2022-09-29T12:54:35.769Z,47.84
2022-09-29T12:57:07.398Z,47.54
2022-09-29T12:59:42.249Z,45.69
2022-09-29T13:02:45.295Z,46.40
2022-09-29T13:06:02.507Z,48.62
2022-09-29T13:09:12.649Z,49.39
2022-09-29T13:12:15.323Z,49.42
2022-09-29T13:15:03.952Z,50.60
2022-09-29T13:17:55.506Z,47.94
2022-09-29T13:20:43.794Z,46.71
2022-09-29T13:23:42.241Z,48.57
2022-09-29T13:26:34.373Z,49.67
2022-09-29T13:29:12.727Z,49.65
2022-09-29T13:34:32.990Z,50.57
2022-09-29T13:37:13.532Z,47.84
2022-09-29T13:39:45.373Z,45.23
2022-09-29T13:42:42.705Z,45.24
2022-09-29T13:45:41.317Z,47.48
2022-09-29T13:48:53.157Z,44.63
2022-09-29T13:51:44.536Z,44.93
2022-09-29T13:54:36.112Z,45.93
2022-09-29T13:57:26.529Z,47.29
2022-09-29T14:00:22.065Z,45.93
2022-09-29T14:03:24.381Z,47.44
2022-09-29T14:06:36.147Z,47.18
2022-09-29T14:09:04.167Z,46.42
2022-09-29T14:11:37.041Z,46.60
2022-09-29T14:14:10.309Z,47.26
2022-09-29T14:16:54.749Z,48.24
2022-09-29T14:19:44.800Z,48.64
2022-09-29T14:23:01.455Z,49.70
2022-09-29T14:25:53.355Z,51.39
2022-09-29T14:28:31.541Z,51.71
2022-09-29T14:31:04.310Z,51.33
2022-09-29T14:33:42.114Z,51.44
2022-09-29T14:36:15.539Z,50.50
2022-09-29T14:39:02.795Z,51.16
2022-09-29T14:41:43.159Z,51.24
2022-09-29T14:44:16.807Z,53.77
2022-09-29T14:47:17.838Z,55.06
2022-09-29T14:50:36.477Z,55.04
2022-09-29T14:53:22.222Z,54.20
2022-09-29T14:56:04.771Z,53.43
2022-09-29T14:58:50.396Z,52.14
2022-09-29T15:01:27.644Z,51.69
2022-09-29T15:03:59.222Z,52.15
2022-09-29T15:06:31.093Z,50.65
2022-09-29T15:09:01.422Z,51.93
2022-09-29T15:11:37.795Z,52.78
2022-09-29T15:14:24.895Z,52.47
2022-09-29T15:17:09.447Z,53.70
2022-09-29T15:19:55.837Z,53.15
2022-09-29T15:23:26.431Z,53.90
2022-09-29T15:28:34.874Z,53.20
2022-09-29T15:31:09.031Z,53.31
2022-09-29T15:33:39.335Z,53.60
2022-09-29T15:36:17.229Z,53.20
2022-09-29T15:38:47.399Z,53.07
2022-09-29T15:41:18.678Z,51.03
2022-09-29T15:43:56.640Z,51.07
2022-09-29T15:46:28.001Z,49.69
2022-09-29T15:49:15.678Z,47.85
2022-09-29T15:51:47.235Z,48.24
2022-09-29T15:54:17.140Z,49.96
2022-09-29T15:57:05.611Z,48.63
2022-09-29T15:59:42.914Z,49.68
2022-09-29T16:02:27.012Z,49.38
2022-09-29T16:04:59.254Z,49.75
2022-09-29T16:07:30.693Z,49.10
2022-09-29T16:10:09.752Z,49.81
2022-09-29T16:12:47.924Z,49.88
2022-09-29T16:15:22.231Z,48.85
2022-09-29T16:17:51.469Z,46.85
2022-09-29T16:20:29.944Z,47.56
2022-09-29T16:22:59.080Z,48.38
2022-09-29T16:25:31.564Z,48.14
2022-09-29T16:28:01.881Z,49.43
2022-09-29T16:30:32.553Z,49.64
2022-09-29T16:33:14.012Z,51.09
2022-09-29T16:35:57.478Z,50.78
2022-09-29T16:38:36.511Z,51.35
2022-09-29T16:41:34.332Z,51.89
2022-09-29T16:44:17.458Z,52.27
2022-09-29T16:46:50.578Z,53.05
2022-09-29T16:49:22.735Z,52.07
2022-09-29T16:51:52.109Z,52.71
2022-09-29T16:54:26.534Z,52.28
2022-09-29T16:57:26.545Z,53.66
2022-09-29T16:59:57.292Z,53.01
2022-09-29T17:02:27.265Z,53.62
2022-09-29T17:04:57.654Z,54.13
2022-09-29T17:07:27.941Z,54.36
2022-09-29T17:09:59.484Z,54.35
2022-09-29T17:12:30.933Z,54.94
2022-09-29T17:14:59.713Z,55.08
2022-09-29T17:17:29.586Z,55.89
2022-09-29T17:19:58.057Z,56.05
2022-09-29T17:22:31.002Z,56.34
2022-09-29T17:24:59.954Z,57.07
2022-09-29T17:27:48.278Z,58.14
2022-09-29T17:30:22.536Z,58.55
2022-09-29T17:32:52.427Z,58.32
2022-09-29T17:35:24.525Z,59.22
2022-09-29T17:37:53.567Z,59.86
2022-09-29T17:40:27.118Z,59.18
2022-09-29T17:42:59.155Z,60.47
2022-09-29T17:45:28.318Z,61.10
2022-09-29T17:47:57.043Z,61.57
2022-09-29T17:50:30.120Z,61.43
2022-09-29T17:52:59.845Z,62.15
2022-09-29T17:55:28.845Z,61.64
2022-09-29T17:57:59.355Z,61.77
2022-09-29T18:00:30.971Z,63.52
2022-09-29T18:02:59.506Z,63.89
2022-09-29T18:05:30.348Z,64.41
2022-09-29T18:07:59.103Z,64.84
2022-09-29T18:10:30.640Z,64.55
2022-09-29T18:13:00.316Z,64.46
2022-09-29T18:15:29.341Z,64.77
2022-09-29T18:18:00.308Z,64.53
2022-09-29T18:20:31.234Z,64.43
2022-09-29T18:23:00.621Z,64.53
2022-09-29T18:25:31.637Z,65.14
2022-09-29T18:28:02.391Z,65.49
2022-09-29T18:30:36.527Z,66.03
2022-09-29T18:33:05.075Z,66.36
2022-09-29T18:35:35.216Z,66.54
2022-09-29T18:38:04.282Z,67.09
2022-09-29T18:40:33.050Z,67.65
2022-09-29T18:43:03.326Z,67.90
2022-09-29T18:45:35.551Z,68.13
2022-09-29T18:48:07.882Z,68.71
2022-09-29T18:50:39.312Z,69.28
2022-09-29T18:53:07.659Z,69.69
2022-09-29T18:55:36.205Z,70.19
2022-09-29T18:58:06.347Z,70.32
2022-09-29T19:00:40.257Z,70.47
2022-09-29T19:03:08.605Z,71.11
2022-09-29T19:05:37.970Z,71.85
2022-09-29T19:08:07.258Z,71.97
2022-09-29T19:10:38.364Z,72.68
2022-09-29T19:13:13.101Z,72.93
2022-09-29T19:15:43.002Z,72.77
2022-09-29T19:18:16.909Z,73.36
2022-09-29T19:20:45.406Z,73.54
2022-09-29T19:23:19.508Z,73.91
2022-09-29T19:25:50.522Z,74.27
2022-09-29T19:28:22.522Z,73.98
2022-09-29T19:30:51.530Z,74.23
2022-09-29T19:33:22.996Z,74.65
2022-09-29T19:35:54.606Z,74.98
2022-09-29T19:38:25.659Z,75.73
2022-09-29T19:40:54.084Z,75.83
2022-09-29T19:43:23.863Z,75.55
2022-09-29T19:45:52.243Z,75.73
2022-09-29T19:48:24.760Z,75.64
2022-09-29T19:51:16.964Z,75.91
2022-09-29T19:53:48.723Z,75.96
2022-09-29T19:56:18.779Z,76.72
2022-09-29T19:58:49.511Z,76.89
2022-09-29T20:01:17.887Z,76.83
2022-09-29T20:03:48.047Z,76.70
2022-09-29T20:06:16.405Z,76.78
2022-09-29T20:08:44.855Z,76.89
2022-09-29T20:11:14.273Z,76.39
2022-09-29T20:13:43.872Z,76.53
2022-09-29T20:16:13.785Z,76.77
2022-09-29T20:18:46.659Z,77.04
2022-09-29T20:21:17.767Z,77.46
2022-09-29T20:23:46.453Z,77.71
2022-09-29T20:26:15.549Z,78.31
2022-09-29T20:28:44.658Z,78.83
2022-09-29T20:31:14.456Z,79.25
2022-09-29T20:33:43.356Z,78.90
2022-09-29T20:36:12.051Z,79.34
2022-09-29T20:38:43.505Z,79.75
2022-09-29T20:41:12.690Z,79.88
2022-09-29T20:43:43.685Z,79.99
2022-09-29T20:46:15.294Z,80.04
2022-09-29T20:48:44.914Z,80.65
2022-09-29T20:51:16.234Z,80.98
2022-09-29T20:53:51.886Z,80.95
2022-09-29T20:56:20.567Z,81.37
2022-09-29T20:58:51.410Z,81.52
2022-09-29T21:01:24.896Z,81.75
2022-09-29T21:03:55.982Z,81.73
2022-09-29T21:06:28.003Z,82.32
2022-09-29T21:08:56.949Z,82.94
2022-09-29T21:11:25.693Z,83.09
2022-09-29T21:13:56.961Z,82.96
2022-09-29T21:16:27.503Z,84.19
2022-09-29T21:18:56.102Z,84.47
2022-09-29T21:21:24.829Z,84.07
2022-09-29T21:23:53.229Z,84.56
2022-09-29T21:26:24.545Z,84.60
2022-09-29T21:28:54.804Z,85.18
2022-09-29T21:31:26.670Z,85.50
2022-09-29T21:33:57.472Z,86.16
2022-09-29T21:36:27.759Z,86.45
2022-09-29T21:38:57.651Z,87.19
2022-09-29T21:41:28.941Z,87.28
2022-09-29T21:43:59.360Z,87.73
2022-09-29T21:46:31.122Z,88.07
2022-09-29T21:49:01.755Z,88.35
2022-09-29T21:51:34.848Z,88.64
2022-09-29T21:54:04.703Z,88.68
2022-09-29T21:56:37.636Z,88.69
2022-09-29T21:59:06.150Z,89.03
2022-09-29T22:01:36.276Z,88.81
2022-09-29T22:04:05.261Z,89.56
2022-09-29T22:06:36.239Z,89.64
2022-09-29T22:09:05.428Z,89.79
2022-09-29T22:11:38.227Z,90.25
2022-09-29T22:14:07.448Z,90.50
2022-09-29T22:16:37.508Z,90.77
2022-09-29T22:19:23.778Z,90.92
2022-09-29T22:21:55.855Z,90.75
2022-09-29T22:24:26.653Z,91.05
2022-09-29T22:26:55.744Z,92.09
2022-09-29T22:29:24.360Z,92.65
2022-09-29T22:31:54.385Z,92.89
2022-09-29T22:34:22.793Z,93.28
2022-09-29T22:36:51.348Z,93.95
2022-09-29T22:39:19.903Z,94.65
2022-09-29T22:41:48.300Z,94.80
2022-09-29T22:44:18.448Z,94.94
2022-09-29T22:46:46.905Z,95.90
2022-09-29T22:49:16.685Z,96.53
2022-09-29T22:51:45.081Z,96.42
2022-09-29T22:54:14.205Z,97.11
2022-09-29T22:56:43.015Z,97.49
2022-09-29T22:59:13.150Z,97.35
2022-09-29T23:01:41.617Z,97.66
2022-09-29T23:04:10.148Z,98.21
2022-09-29T23:06:40.307Z,99.07
2022-09-29T23:09:10.150Z,99.63
2022-09-29T23:11:38.740Z,99.40
2022-09-29T23:14:07.120Z,99.60
2022-09-29T23:16:35.601Z,99.66
2022-09-29T23:19:04.031Z,99.80
2022-09-29T23:21:32.528Z,100.00
2022-09-29T23:24:03.184Z,100.00
2022-09-29T23:26:32.481Z,100.00
2022-09-29T23:29:01.373Z,100.00
2022-09-29T23:31:29.913Z,100.00
2022-09-29T23:34:00.603Z,100.00
2022-09-29T23:36:32.110Z,100.00
2022-09-29T23:39:14.031Z,100.00
2022-09-29T23:41:48.468Z,100.00
2022-09-29T23:44:20.427Z,100.00
2022-09-29T23:46:49.169Z,100.00
2022-09-29T23:49:20.266Z,100.00
2022-09-29T23:51:51.214Z,100.00
2022-09-29T23:54:23.177Z,100.00
2022-09-29T23:56:54.175Z,100.00
2022-09-29T23:59:23.020Z,100.00
